sensor_id;sensor_type;location;lat;lon;timestamp;pressure;altitude;pressure_sealevel;temperature
27986;BMP280;15453;53.692;10.168;2023-02-08T00:00:22;103821.78;;;1.74
27986;BMP280;15453;53.692;10.168;2023-02-08T00:02:48;103815.63;;;1.72
27986;BMP280;15453;53.692;10.168;2023-02-08T00:05:14;103814.78;;;1.71
27986;BMP280;15453;53.692;10.168;2023-02-08T00:07:39;103812.19;;;1.70
27986;BMP280;15453;53.692;10.168;2023-02-08T00:10:05;103806.78;;;1.70
27986;BMP280;15453;53.692;10.168;2023-02-08T00:12:32;103806.78;;;1.70
27986;BMP280;15453;53.692;10.168;2023-02-08T00:14:57;103797.09;;;1.67
27986;BMP280;15453;53.692;10.168;2023-02-08T00:17:22;103797.09;;;1.67
27986;BMP280;15453;53.692;10.168;2023-02-08T00:19:48;103793.63;;;1.65
27986;BMP280;15453;53.692;10.168;2023-02-08T00:22:13;103786.28;;;1.67
27986;BMP280;15453;53.692;10.168;2023-02-08T00:24:38;103786.28;;;1.67
27986;BMP280;15453;53.692;10.168;2023-02-08T00:27:03;103786.28;;;1.67
27986;BMP280;15453;53.692;10.168;2023-02-08T00:29:29;103786.28;;;1.67
27986;BMP280;15453;53.692;10.168;2023-02-08T00:31:54;103782.69;;;1.67
27986;BMP280;15453;53.692;10.168;2023-02-08T00:34:19;103779.13;;;1.66
27986;BMP280;15453;53.692;10.168;2023-02-08T00:36:44;103779.13;;;1.66
27986;BMP280;15453;53.692;10.168;2023-02-08T00:39:10;103780.97;;;1.66
27986;BMP280;15453;53.692;10.168;2023-02-08T00:41:35;103776.41;;;1.66
27986;BMP280;15453;53.692;10.168;2023-02-08T00:44:00;103776.41;;;1.66
27986;BMP280;15453;53.692;10.168;2023-02-08T00:46:25;103788.22;;;1.65
27986;BMP280;15453;53.692;10.168;2023-02-08T00:48:51;103788.22;;;1.65
27986;BMP280;15453;53.692;10.168;2023-02-08T00:51:16;103784.69;;;1.65
27986;BMP280;15453;53.692;10.168;2023-02-08T00:53:43;103785.75;;;1.62
27986;BMP280;15453;53.692;10.168;2023-02-08T00:56:10;103785.88;;;1.61
27986;BMP280;15453;53.692;10.168;2023-02-08T00:58:36;103791.28;;;1.61
27986;BMP280;15453;53.692;10.168;2023-02-08T01:01:04;103780.72;;;1.58
27986;BMP280;15453;53.692;10.168;2023-02-08T01:03:32;103779.94;;;1.56
27986;BMP280;15453;53.692;10.168;2023-02-08T01:06:02;103779.94;;;1.56
27986;BMP280;15453;53.692;10.168;2023-02-08T01:08:28;103790.03;;;1.54
27986;BMP280;15453;53.692;10.168;2023-02-08T01:11:02;103793.72;;;1.53
27986;BMP280;15453;53.692;10.168;2023-02-08T01:13:27;103783.75;;;1.53
27986;BMP280;15453;53.692;10.168;2023-02-08T01:15:52;103788.31;;;1.53
27986;BMP280;15453;53.692;10.168;2023-02-08T01:18:17;103788.31;;;1.53
27986;BMP280;15453;53.692;10.168;2023-02-08T01:20:43;103792.84;;;1.52
27986;BMP280;15453;53.692;10.168;2023-02-08T01:23:08;103787.53;;;1.51
27986;BMP280;15453;53.692;10.168;2023-02-08T01:25:33;103787.53;;;1.51
27986;BMP280;15453;53.692;10.168;2023-02-08T01:27:59;103788.53;;;1.50
27986;BMP280;15453;53.692;10.168;2023-02-08T01:30:24;103788.53;;;1.50
27986;BMP280;15453;53.692;10.168;2023-02-08T01:32:49;103773.44;;;1.47
27986;BMP280;15453;53.692;10.168;2023-02-08T01:35:15;103773.66;;;1.44
27986;BMP280;15453;53.692;10.168;2023-02-08T01:37:40;103770.22;;;1.42
27986;BMP280;15453;53.692;10.168;2023-02-08T01:40:06;103774.75;;;1.42
27986;BMP280;15453;53.692;10.168;2023-02-08T01:42:31;103764.16;;;1.39
27986;BMP280;15453;53.692;10.168;2023-02-08T01:47:46;103770.88;;;1.33
27986;BMP280;15453;53.692;10.168;2023-02-08T01:50:14;103770.88;;;1.33
27986;BMP280;15453;53.692;10.168;2023-02-08T01:52:42;103767.56;;;1.30
27986;BMP280;15453;53.692;10.168;2023-02-08T01:55:16;103768.66;;;1.27
27986;BMP280;15453;53.692;10.168;2023-02-08T01:57:43;103766.94;;;1.26
27986;BMP280;15453;53.692;10.168;2023-02-08T02:00:14;103765.34;;;1.24
27986;BMP280;15453;53.692;10.168;2023-02-08T02:02:41;103772.56;;;1.23
27986;BMP280;15453;53.692;10.168;2023-02-08T02:05:07;103762.00;;;1.20
27986;BMP280;15453;53.692;10.168;2023-02-08T02:07:33;103769.38;;;1.18
27986;BMP280;15453;53.692;10.168;2023-02-08T02:10:28;103767.00;;;1.14
27986;BMP280;15453;53.692;10.168;2023-02-08T02:12:55;103767.00;;;1.14
27986;BMP280;15453;53.692;10.168;2023-02-08T02:15:22;103775.09;;;1.14
27986;BMP280;15453;53.692;10.168;2023-02-08T02:17:47;103771.66;;;1.12
27986;BMP280;15453;53.692;10.168;2023-02-08T02:20:35;103771.66;;;1.12
27986;BMP280;15453;53.692;10.168;2023-02-08T02:29:14;103764.25;;;1.03
27986;BMP280;15453;53.692;10.168;2023-02-08T02:34:36;103772.69;;;0.98
27986;BMP280;15453;53.692;10.168;2023-02-08T02:37:17;103772.69;;;0.98
27986;BMP280;15453;53.692;10.168;2023-02-08T02:43:00;103774.09;;;0.91
27986;BMP280;15453;53.692;10.168;2023-02-08T02:46:11;103774.09;;;0.91
27986;BMP280;15453;53.692;10.168;2023-02-08T02:49:17;103774.56;;;0.85
27986;BMP280;15453;53.692;10.168;2023-02-08T02:51:52;103774.56;;;0.85
27986;BMP280;15453;53.692;10.168;2023-02-08T02:54:24;103776.75;;;0.80
27986;BMP280;15453;53.692;10.168;2023-02-08T02:56:54;103778.56;;;0.80
27986;BMP280;15453;53.692;10.168;2023-02-08T02:59:21;103784.19;;;0.77
27986;BMP280;15453;53.692;10.168;2023-02-08T03:01:47;103775.25;;;0.76
27986;BMP280;15453;53.692;10.168;2023-02-08T03:07:22;103778.38;;;0.70
27986;BMP280;15453;53.692;10.168;2023-02-08T03:31:52;103789.31;;;0.56
27986;BMP280;15453;53.692;10.168;2023-02-08T03:36:56;103784.91;;;0.55
27986;BMP280;15453;53.692;10.168;2023-02-08T03:39:25;103789.31;;;0.56
27986;BMP280;15453;53.692;10.168;2023-02-08T03:41:54;103790.41;;;0.54
27986;BMP280;15453;53.692;10.168;2023-02-08T03:46:55;103788.69;;;0.53
27986;BMP280;15453;53.692;10.168;2023-02-08T03:49:25;103794.09;;;0.53
27986;BMP280;15453;53.692;10.168;2023-02-08T03:51:53;103790.50;;;0.52
27986;BMP280;15453;53.692;10.168;2023-02-08T03:54:23;103786.19;;;0.50
27986;BMP280;15453;53.692;10.168;2023-02-08T03:57:12;103786.19;;;0.50
27986;BMP280;15453;53.692;10.168;2023-02-08T03:59:42;103790.72;;;0.49
27986;BMP280;15453;53.692;10.168;2023-02-08T04:02:14;103793.53;;;0.48
27986;BMP280;15453;53.692;10.168;2023-02-08T04:04:44;103790.09;;;0.46
27986;BMP280;15453;53.692;10.168;2023-02-08T04:07:11;103788.28;;;0.46
27986;BMP280;15453;53.692;10.168;2023-02-08T04:09:37;103791.91;;;0.45
27986;BMP280;15453;53.692;10.168;2023-02-08T04:12:02;103793.75;;;0.45
27986;BMP280;15453;53.692;10.168;2023-02-08T04:14:28;103795.69;;;0.43
27986;BMP280;15453;53.692;10.168;2023-02-08T04:16:53;103794.84;;;0.42
27986;BMP280;15453;53.692;10.168;2023-02-08T04:19:18;103786.00;;;0.40
27986;BMP280;15453;53.692;10.168;2023-02-08T04:21:44;103785.25;;;0.38
27986;BMP280;15453;53.692;10.168;2023-02-08T04:24:09;103782.56;;;0.38
27986;BMP280;15453;53.692;10.168;2023-02-08T04:26:34;103783.50;;;0.37
27986;BMP280;15453;53.692;10.168;2023-02-08T04:29:00;103778.13;;;0.37
27986;BMP280;15453;53.692;10.168;2023-02-08T04:31:25;103777.28;;;0.37
27986;BMP280;15453;53.692;10.168;2023-02-08T04:33:51;103763.91;;;0.35
27986;BMP280;15453;53.692;10.168;2023-02-08T04:36:16;103763.91;;;0.35
27986;BMP280;15453;53.692;10.168;2023-02-08T04:38:41;103762.28;;;0.33
27986;BMP280;15453;53.692;10.168;2023-02-08T04:41:07;103764.00;;;0.34
27986;BMP280;15453;53.692;10.168;2023-02-08T04:43:32;103767.69;;;0.33
27986;BMP280;15453;53.692;10.168;2023-02-08T04:45:57;103758.72;;;0.32
27986;BMP280;15453;53.692;10.168;2023-02-08T04:48:23;103767.78;;;0.31
27986;BMP280;15453;53.692;10.168;2023-02-08T04:50:48;103766.91;;;0.31
27986;BMP280;15453;53.692;10.168;2023-02-08T04:53:13;103758.81;;;0.31
27986;BMP280;15453;53.692;10.168;2023-02-08T04:55:38;103759.78;;;0.30
27986;BMP280;15453;53.692;10.168;2023-02-08T04:58:04;103767.00;;;0.29
27986;BMP280;15453;53.692;10.168;2023-02-08T05:00:29;103766.16;;;0.29
27986;BMP280;15453;53.692;10.168;2023-02-08T05:02:55;103766.06;;;0.30
27986;BMP280;15453;53.692;10.168;2023-02-08T05:05:22;103760.78;;;0.29
27986;BMP280;15453;53.692;10.168;2023-02-08T05:07:47;103759.16;;;0.26
27986;BMP280;15453;53.692;10.168;2023-02-08T05:10:13;103758.28;;;0.26
27986;BMP280;15453;53.692;10.168;2023-02-08T05:12:38;103753.00;;;0.24
27986;BMP280;15453;53.692;10.168;2023-02-08T05:15:04;103737.81;;;0.23
27986;BMP280;15453;53.692;10.168;2023-02-08T05:17:29;103746.78;;;0.24
27986;BMP280;15453;53.692;10.168;2023-02-08T05:19:54;103742.31;;;0.22
27986;BMP280;15453;53.692;10.168;2023-02-08T05:22:20;103741.47;;;0.22
27986;BMP280;15453;53.692;10.168;2023-02-08T05:24:45;103755.06;;;0.21
27986;BMP280;15453;53.692;10.168;2023-02-08T05:27:10;103756.78;;;0.22
27986;BMP280;15453;53.692;10.168;2023-02-08T05:29:35;103756.78;;;0.22
27986;BMP280;15453;53.692;10.168;2023-02-08T05:32:01;103749.78;;;0.19
27986;BMP280;15453;53.692;10.168;2023-02-08T05:34:26;103754.28;;;0.18
27986;BMP280;15453;53.692;10.168;2023-02-08T05:36:52;103743.50;;;0.18
27986;BMP280;15453;53.692;10.168;2023-02-08T05:39:17;103739.97;;;0.18
27986;BMP280;15453;53.692;10.168;2023-02-08T05:41:42;103739.97;;;0.18
27986;BMP280;15453;53.692;10.168;2023-02-08T05:44:08;103748.91;;;0.18
27986;BMP280;15453;53.692;10.168;2023-02-08T05:46:33;103757.75;;;0.21
27986;BMP280;15453;53.692;10.168;2023-02-08T05:48:58;103751.38;;;0.22
27986;BMP280;15453;53.692;10.168;2023-02-08T05:51:23;103747.72;;;0.22
27986;BMP280;15453;53.692;10.168;2023-02-08T05:53:49;103752.06;;;0.25
27986;BMP280;15453;53.692;10.168;2023-02-08T05:56:14;103740.41;;;0.25
27986;BMP280;15453;53.692;10.168;2023-02-08T05:58:39;103734.03;;;0.26
27986;BMP280;15453;53.692;10.168;2023-02-08T06:01:09;103737.59;;;0.26
27986;BMP280;15453;53.692;10.168;2023-02-08T06:03:35;103747.41;;;0.27
27986;BMP280;15453;53.692;10.168;2023-02-08T06:06:00;103743.72;;;0.28
27986;BMP280;15453;53.692;10.168;2023-02-08T06:08:26;103751.72;;;0.30
27986;BMP280;15453;53.692;10.168;2023-02-08T06:10:51;103752.69;;;0.29
27986;BMP280;15453;53.692;10.168;2023-02-08T06:13:16;103759.78;;;0.30
27986;BMP280;15453;53.692;10.168;2023-02-08T06:15:42;103765.19;;;0.30
27986;BMP280;15453;53.692;10.168;2023-02-08T06:18:07;103766.06;;;0.30
27986;BMP280;15453;53.692;10.168;2023-02-08T06:20:33;103765.28;;;0.28
27986;BMP280;15453;53.692;10.168;2023-02-08T06:22:58;103767.88;;;0.30
27986;BMP280;15453;53.692;10.168;2023-02-08T06:25:24;103765.19;;;0.30
27986;BMP280;15453;53.692;10.168;2023-02-08T06:27:49;103765.19;;;0.30
27986;BMP280;15453;53.692;10.168;2023-02-08T06:30:14;103765.19;;;0.30
27986;BMP280;15453;53.692;10.168;2023-02-08T06:32:39;103765.19;;;0.30
27986;BMP280;15453;53.692;10.168;2023-02-08T06:35:05;103763.47;;;0.29
27986;BMP280;15453;53.692;10.168;2023-02-08T06:37:31;103763.38;;;0.30
27986;BMP280;15453;53.692;10.168;2023-02-08T06:39:56;103763.38;;;0.30
27986;BMP280;15453;53.692;10.168;2023-02-08T06:42:21;103757.97;;;0.30
27986;BMP280;15453;53.692;10.168;2023-02-08T06:44:46;103759.78;;;0.30
27986;BMP280;15453;53.692;10.168;2023-02-08T06:47:14;103751.72;;;0.30
27986;BMP280;15453;53.692;10.168;2023-02-08T06:49:39;103751.72;;;0.30
27986;BMP280;15453;53.692;10.168;2023-02-08T06:52:05;103752.59;;;0.30
27986;BMP280;15453;53.692;10.168;2023-02-08T06:54:31;103751.72;;;0.30
27986;BMP280;15453;53.692;10.168;2023-02-08T06:56:56;103751.72;;;0.30
27986;BMP280;15453;53.692;10.168;2023-02-08T06:59:21;103767.88;;;0.30
27986;BMP280;15453;53.692;10.168;2023-02-08T07:01:46;103771.47;;;0.30
27986;BMP280;15453;53.692;10.168;2023-02-08T07:04:12;103757.09;;;0.30
27986;BMP280;15453;53.692;10.168;2023-02-08T07:06:37;103754.50;;;0.28
27986;BMP280;15453;53.692;10.168;2023-02-08T07:09:02;103756.22;;;0.29
27986;BMP280;15453;53.692;10.168;2023-02-08T07:11:28;103756.22;;;0.29
27986;BMP280;15453;53.692;10.168;2023-02-08T07:13:54;103752.78;;;0.27
27986;BMP280;15453;53.692;10.168;2023-02-08T07:16:19;103755.28;;;0.30
27986;BMP280;15453;53.692;10.168;2023-02-08T07:18:45;103755.19;;;0.32
27986;BMP280;15453;53.692;10.168;2023-02-08T07:21:10;103754.31;;;0.31
27986;BMP280;15453;53.692;10.168;2023-02-08T07:23:37;103748.81;;;0.33
27986;BMP280;15453;53.692;10.168;2023-02-08T07:26:05;103748.81;;;0.33
27986;BMP280;15453;53.692;10.168;2023-02-08T07:28:31;103754.19;;;0.33
27986;BMP280;15453;53.692;10.168;2023-02-08T07:30:56;103754.19;;;0.33
27986;BMP280;15453;53.692;10.168;2023-02-08T07:33:22;103754.19;;;0.33
27986;BMP280;15453;53.692;10.168;2023-02-08T07:35:47;103742.22;;;0.37
27986;BMP280;15453;53.692;10.168;2023-02-08T07:38:13;103752.03;;;0.38
27986;BMP280;15453;53.692;10.168;2023-02-08T07:40:38;103751.91;;;0.39
27986;BMP280;15453;53.692;10.168;2023-02-08T07:43:03;103757.19;;;0.41
27986;BMP280;15453;53.692;10.168;2023-02-08T07:45:29;103751.69;;;0.42
27986;BMP280;15453;53.692;10.168;2023-02-08T07:47:54;103751.69;;;0.42
27986;BMP280;15453;53.692;10.168;2023-02-08T07:50:19;103749.63;;;0.46
27986;BMP280;15453;53.692;10.168;2023-02-08T07:52:45;103749.41;;;0.49
27986;BMP280;15453;53.692;10.168;2023-02-08T07:55:12;103750.06;;;0.52
27986;BMP280;15453;53.692;10.168;2023-02-08T07:57:45;103749.84;;;0.55
27986;BMP280;15453;53.692;10.168;2023-02-08T08:00:12;103760.16;;;0.61
27986;BMP280;15453;53.692;10.168;2023-02-08T08:02:38;103755.41;;;0.65
27986;BMP280;15453;53.692;10.168;2023-02-08T08:05:03;103750.66;;;0.68
27986;BMP280;15453;53.692;10.168;2023-02-08T08:07:29;103745.78;;;0.73
27986;BMP280;15453;53.692;10.168;2023-02-08T08:09:54;103744.59;;;0.77
27986;BMP280;15453;53.692;10.168;2023-02-08T08:12:19;103746.09;;;0.81
27986;BMP280;15453;53.692;10.168;2023-02-08T08:14:45;103740.34;;;0.86
27986;BMP280;15453;53.692;10.168;2023-02-08T08:17:10;103742.81;;;0.89
27986;BMP280;15453;53.692;10.168;2023-02-08T08:19:36;103740.75;;;0.92
27986;BMP280;15453;53.692;10.168;2023-02-08T08:22:01;103741.38;;;0.96
27986;BMP280;15453;53.692;10.168;2023-02-08T08:24:26;103735.66;;;1.00
27986;BMP280;15453;53.692;10.168;2023-02-08T08:26:51;103732.59;;;1.05
27986;BMP280;15453;53.692;10.168;2023-02-08T08:29:17;103732.59;;;1.05
27986;BMP280;15453;53.692;10.168;2023-02-08T08:31:42;103729.44;;;1.11
27986;BMP280;15453;53.692;10.168;2023-02-08T08:34:08;103734.50;;;1.15
27986;BMP280;15453;53.692;10.168;2023-02-08T08:36:33;103739.56;;;1.20
27986;BMP280;15453;53.692;10.168;2023-02-08T08:38:59;103740.28;;;1.22
27986;BMP280;15453;53.692;10.168;2023-02-08T08:41:24;103733.78;;;1.24
27986;BMP280;15453;53.692;10.168;2023-02-08T08:43:51;103733.78;;;1.24
27986;BMP280;15453;53.692;10.168;2023-02-08T08:46:16;103741.19;;;1.33
27986;BMP280;15453;53.692;10.168;2023-02-08T08:48:42;103739.03;;;1.38
27986;BMP280;15453;53.692;10.168;2023-02-08T08:51:07;103732.25;;;1.44
27986;BMP280;15453;53.692;10.168;2023-02-08T08:53:33;103732.25;;;1.44
27986;BMP280;15453;53.692;10.168;2023-02-08T08:55:58;103726.28;;;1.51
27986;BMP280;15453;53.692;10.168;2023-02-08T08:58:24;103726.28;;;1.51
27986;BMP280;15453;53.692;10.168;2023-02-08T09:00:49;103718.06;;;1.64
27986;BMP280;15453;53.692;10.168;2023-02-08T09:03:14;103717.72;;;1.68
27986;BMP280;15453;53.692;10.168;2023-02-08T09:05:40;103714.66;;;1.73
27986;BMP280;15453;53.692;10.168;2023-02-08T09:08:05;103718.72;;;1.78
27986;BMP280;15453;53.692;10.168;2023-02-08T09:10:30;103720.09;;;1.84
27986;BMP280;15453;53.692;10.168;2023-02-08T09:12:56;103728.56;;;1.90
27986;BMP280;15453;53.692;10.168;2023-02-08T09:15:22;103728.56;;;1.90
27986;BMP280;15453;53.692;10.168;2023-02-08T09:17:47;103720.59;;;2.00
27986;BMP280;15453;53.692;10.168;2023-02-08T09:20:12;103720.59;;;2.00
27986;BMP280;15453;53.692;10.168;2023-02-08T09:22:38;103724.16;;;2.11
27986;BMP280;15453;53.692;10.168;2023-02-08T09:25:03;103724.16;;;2.11
27986;BMP280;15453;53.692;10.168;2023-02-08T09:27:28;103708.69;;;2.13
27986;BMP280;15453;53.692;10.168;2023-02-08T09:29:54;103719.25;;;2.27
27986;BMP280;15453;53.692;10.168;2023-02-08T09:32:19;103728.72;;;2.33
27986;BMP280;15453;53.692;10.168;2023-02-08T09:34:46;103725.63;;;2.37
27986;BMP280;15453;53.692;10.168;2023-02-08T09:37:11;103720.59;;;2.44
27986;BMP280;15453;53.692;10.168;2023-02-08T09:39:36;103719.13;;;2.51
27986;BMP280;15453;53.692;10.168;2023-02-08T09:42:41;103720.72;;;2.53
27986;BMP280;15453;53.692;10.168;2023-02-08T09:45:26;103720.09;;;2.61
27986;BMP280;15453;53.692;10.168;2023-02-08T09:48:17;103710.59;;;2.66
27986;BMP280;15453;53.692;10.168;2023-02-08T09:53:39;103714.03;;;2.79
27986;BMP280;15453;53.692;10.168;2023-02-08T09:56:06;103714.03;;;2.79
27986;BMP280;15453;53.692;10.168;2023-02-08T09:58:38;103706.75;;;2.91
27986;BMP280;15453;53.692;10.168;2023-02-08T10:01:07;103711.63;;;2.97
27986;BMP280;15453;53.692;10.168;2023-02-08T10:03:38;103711.63;;;2.97
27986;BMP280;15453;53.692;10.168;2023-02-08T10:06:08;103707.94;;;2.98
27986;BMP280;15453;53.692;10.168;2023-02-08T10:08:34;103710.13;;;3.04
27986;BMP280;15453;53.692;10.168;2023-02-08T10:19:29;103715.34;;;3.27
27986;BMP280;15453;53.692;10.168;2023-02-08T10:22:10;103717.88;;;3.40
27986;BMP280;15453;53.692;10.168;2023-02-08T10:24:48;103717.88;;;3.40
27986;BMP280;15453;53.692;10.168;2023-02-08T10:30:00;103725.81;;;3.52
27986;BMP280;15453;53.692;10.168;2023-02-08T10:35:24;103720.91;;;3.67
27986;BMP280;15453;53.692;10.168;2023-02-08T10:37:51;103711.66;;;3.69
27986;BMP280;15453;53.692;10.168;2023-02-08T10:42:44;103719.47;;;3.83
27986;BMP280;15453;53.692;10.168;2023-02-08T10:45:20;103709.91;;;3.89
27986;BMP280;15453;53.692;10.168;2023-02-08T10:47:52;103712.94;;;3.95
27986;BMP280;15453;53.692;10.168;2023-02-08T10:50:27;103707.06;;;4.11
27986;BMP280;15453;53.692;10.168;2023-02-08T10:52:54;103707.06;;;4.11
27986;BMP280;15453;53.692;10.168;2023-02-08T10:55:20;103696.91;;;4.13
27986;BMP280;15453;53.692;10.168;2023-02-08T10:57:47;103705.69;;;4.26
27986;BMP280;15453;53.692;10.168;2023-02-08T11:02:42;103697.44;;;4.37
27986;BMP280;15453;53.692;10.168;2023-02-08T11:05:11;103697.44;;;4.37
27986;BMP280;15453;53.692;10.168;2023-02-08T11:07:36;103697.19;;;4.40
27986;BMP280;15453;53.692;10.168;2023-02-08T11:10:28;103691.50;;;4.52
27986;BMP280;15453;53.692;10.168;2023-02-08T11:15:46;103687.38;;;4.58
27986;BMP280;15453;53.692;10.168;2023-02-08T11:18:19;103688.25;;;4.68
27986;BMP280;15453;53.692;10.168;2023-02-08T11:20:49;103669.69;;;4.73
27986;BMP280;15453;53.692;10.168;2023-02-08T11:23:35;103671.09;;;4.77
27986;BMP280;15453;53.692;10.168;2023-02-08T11:26:35;103671.09;;;4.77
27986;BMP280;15453;53.692;10.168;2023-02-08T11:29:17;103659.97;;;4.80
27986;BMP280;15453;53.692;10.168;2023-02-08T11:34:23;103676.88;;;5.02
27986;BMP280;15453;53.692;10.168;2023-02-08T11:36:49;103676.88;;;5.02
27986;BMP280;15453;53.692;10.168;2023-02-08T11:39:23;103668.44;;;5.05
27986;BMP280;15453;53.692;10.168;2023-02-08T11:41:52;103666.00;;;5.12
27986;BMP280;15453;53.692;10.168;2023-02-08T11:44:33;103669.16;;;5.26
27986;BMP280;15453;53.692;10.168;2023-02-08T11:47:01;103663.84;;;5.34
27986;BMP280;15453;53.692;10.168;2023-02-08T11:49:38;103663.84;;;5.34
27986;BMP280;15453;53.692;10.168;2023-02-08T11:54:51;103651.09;;;5.44
27986;BMP280;15453;53.692;10.168;2023-02-08T11:57:22;103646.38;;;5.46
27986;BMP280;15453;53.692;10.168;2023-02-08T11:59:50;103652.94;;;5.53
27986;BMP280;15453;53.692;10.168;2023-02-08T12:04:53;103645.50;;;5.65
27986;BMP280;15453;53.692;10.168;2023-02-08T12:07:48;103646.16;;;5.76
27986;BMP280;15453;53.692;10.168;2023-02-08T12:20:00;103618.75;;;5.97
27986;BMP280;15453;53.692;10.168;2023-02-08T12:22:05;103619.00;;;6.03
27986;BMP280;15453;53.692;10.168;2023-02-08T12:24:48;103618.13;;;6.13
27986;BMP280;15453;53.692;10.168;2023-02-08T12:27:41;103609.34;;;6.18
27986;BMP280;15453;53.692;10.168;2023-02-08T12:30:25;103603.28;;;6.24
27986;BMP280;15453;53.692;10.168;2023-02-08T12:36:04;103597.50;;;6.37
27986;BMP280;15453;53.692;10.168;2023-02-08T12:42:15;103580.25;;;6.46
27986;BMP280;15453;53.692;10.168;2023-02-08T12:50:13;103564.00;;;6.54
27986;BMP280;15453;53.692;10.168;2023-02-08T12:52:47;103564.38;;;6.59
27986;BMP280;15453;53.692;10.168;2023-02-08T12:55:25;103562.53;;;6.60
27986;BMP280;15453;53.692;10.168;2023-02-08T12:57:56;103545.88;;;6.63
27986;BMP280;15453;53.692;10.168;2023-02-08T13:00:29;103549.28;;;6.65
27986;BMP280;15453;53.692;10.168;2023-02-08T13:05:44;103540.47;;;6.71
27986;BMP280;15453;53.692;10.168;2023-02-08T13:08:29;103529.28;;;6.74
27986;BMP280;15453;53.692;10.168;2023-02-08T13:11:01;103530.53;;;6.79
27986;BMP280;15453;53.692;10.168;2023-02-08T13:13:32;103530.06;;;6.84
27986;BMP280;15453;53.692;10.168;2023-02-08T13:16:06;103531.47;;;6.88
27986;BMP280;15453;53.692;10.168;2023-02-08T13:18:38;103528.25;;;6.92
27986;BMP280;15453;53.692;10.168;2023-02-08T13:21:18;103528.25;;;6.92
27986;BMP280;15453;53.692;10.168;2023-02-08T13:23:46;103511.75;;;6.94
27986;BMP280;15453;53.692;10.168;2023-02-08T13:26:17;103502.38;;;6.96
27986;BMP280;15453;53.692;10.168;2023-02-08T13:28:50;103510.25;;;6.99
27986;BMP280;15453;53.692;10.168;2023-02-08T13:31:24;103506.50;;;7.00
27986;BMP280;15453;53.692;10.168;2023-02-08T13:36:58;103505.47;;;7.01
27986;BMP280;15453;53.692;10.168;2023-02-08T13:39:30;103507.03;;;7.04
27986;BMP280;15453;53.692;10.168;2023-02-08T13:41:56;103497.00;;;7.04
27986;BMP280;15453;53.692;10.168;2023-02-08T13:44:34;103497.69;;;7.06
27986;BMP280;15453;53.692;10.168;2023-02-08T13:47:01;103488.66;;;7.06
27986;BMP280;15453;53.692;10.168;2023-02-08T13:49:50;103488.34;;;7.09
27986;BMP280;15453;53.692;10.168;2023-02-08T13:57:57;103479.63;;;7.05
27986;BMP280;15453;53.692;10.168;2023-02-08T14:00:25;103474.00;;;7.07
27986;BMP280;15453;53.692;10.168;2023-02-08T14:03:02;103471.28;;;7.07
27986;BMP280;15453;53.692;10.168;2023-02-08T14:05:52;103464.28;;;7.04
27986;BMP280;15453;53.692;10.168;2023-02-08T14:08:29;103461.41;;;7.06
27986;BMP280;15453;53.692;10.168;2023-02-08T14:14:15;103461.94;;;7.09
27986;BMP280;15453;53.692;10.168;2023-02-08T14:16:43;103460.06;;;7.10
27986;BMP280;15453;53.692;10.168;2023-02-08T14:19:22;103460.91;;;7.10
27986;BMP280;15453;53.692;10.168;2023-02-08T14:21:59;103459.91;;;7.11
27986;BMP280;15453;53.692;10.168;2023-02-08T14:24:29;103464.19;;;7.14
27986;BMP280;15453;53.692;10.168;2023-02-08T14:27:07;103454.97;;;7.15
27986;BMP280;15453;53.692;10.168;2023-02-08T14:29:34;103444.78;;;7.17
27986;BMP280;15453;53.692;10.168;2023-02-08T14:31:59;103440.53;;;7.22
27986;BMP280;15453;53.692;10.168;2023-02-08T14:34:28;103440.22;;;7.25
27986;BMP280;15453;53.692;10.168;2023-02-08T14:39:43;103431.72;;;7.28
27986;BMP280;15453;53.692;10.168;2023-02-08T14:42:09;103421.34;;;7.32
27986;BMP280;15453;53.692;10.168;2023-02-08T14:47:09;103433.28;;;7.31
27986;BMP280;15453;53.692;10.168;2023-02-08T14:49:42;103422.53;;;7.29
27986;BMP280;15453;53.692;10.168;2023-02-08T14:52:20;103413.66;;;7.27
27986;BMP280;15453;53.692;10.168;2023-02-08T14:54:49;103411.78;;;7.28
27986;BMP280;15453;53.692;10.168;2023-02-08T14:57:29;103410.06;;;7.27
27986;BMP280;15453;53.692;10.168;2023-02-08T15:00:00;103404.78;;;7.25
27986;BMP280;15453;53.692;10.168;2023-02-08T15:02:27;103399.66;;;7.22
27986;BMP280;15453;53.692;10.168;2023-02-08T15:04:56;103400.66;;;7.21
27986;BMP280;15453;53.692;10.168;2023-02-08T15:07:28;103400.00;;;7.19
27986;BMP280;15453;53.692;10.168;2023-02-08T15:10:01;103413.78;;;7.18
27986;BMP280;15453;53.692;10.168;2023-02-08T15:12:28;103414.09;;;7.15
27986;BMP280;15453;53.692;10.168;2023-02-08T15:14:56;103412.41;;;7.14
27986;BMP280;15453;53.692;10.168;2023-02-08T15:17:33;103409.97;;;7.11
27986;BMP280;15453;53.692;10.168;2023-02-08T15:20:00;103415.44;;;7.11
27986;BMP280;15453;53.692;10.168;2023-02-08T15:22:34;103407.56;;;7.08
27986;BMP280;15453;53.692;10.168;2023-02-08T15:25:13;103409.63;;;7.06
27986;BMP280;15453;53.692;10.168;2023-02-08T15:27:46;103399.75;;;7.05
27986;BMP280;15453;53.692;10.168;2023-02-08T15:32:46;103403.97;;;6.99
27986;BMP280;15453;53.692;10.168;2023-02-08T15:35:14;103393.22;;;6.98
27986;BMP280;15453;53.692;10.168;2023-02-08T15:37:42;103391.69;;;6.95
27986;BMP280;15453;53.692;10.168;2023-02-08T15:40:38;103391.16;;;6.92
27986;BMP280;15453;53.692;10.168;2023-02-08T15:43:12;103382.97;;;6.92
27986;BMP280;15453;53.692;10.168;2023-02-08T15:45:37;103381.25;;;6.91
27986;BMP280;15453;53.692;10.168;2023-02-08T15:48:05;103377.13;;;6.87
27986;BMP280;15453;53.692;10.168;2023-02-08T15:50:31;103386.34;;;6.86
27986;BMP280;15453;53.692;10.168;2023-02-08T15:53:00;103389.38;;;6.83
27986;BMP280;15453;53.692;10.168;2023-02-08T15:55:30;103387.84;;;6.80
27986;BMP280;15453;53.692;10.168;2023-02-08T15:57:59;103392.59;;;6.78
27986;BMP280;15453;53.692;10.168;2023-02-08T16:00:30;103381.16;;;6.75
27986;BMP280;15453;53.692;10.168;2023-02-08T16:03:01;103378.59;;;6.73
27986;BMP280;15453;53.692;10.168;2023-02-08T16:05:30;103379.75;;;6.71
27986;BMP280;15453;53.692;10.168;2023-02-08T16:07:57;103385.38;;;6.69